Bangkok (Suvarnabhumi), Thailand

09:10 PM ICT on Augusti 30, 2014 (GMT +0700)
Bangkok (Suvarnabhumi) | Change Station
CLOSE
Current Station
Airport
Location: Bangkok (Suvarnabhumi),
Elevation: 7 ft
Nearby Weather Stations

Elev 7 ft 13.36 °N, 100.98 °E | Updated 10 minutes ago

Mostly Cloudy
Mestadels molnigt
82 °F
Feels Like 88 °F
N
4
Vind Växlande Vind from S/SV

Idag
High -- | Low -- °F
--% Chance of Precip.
Yesterday
High -- | Low -- °F
Precip. -- tum
6:04 AM 6:28 PM
Första kvarteret, 22% visible
Lufttryck 29.80 tum
Sikt 6.2 miles
Molnigt Few 2000 ft
Mestadels molnigt 12000 ft
Mestadels molnigt 30000 ft
Värmeindex 88 °F
Daggpunkt 73 °F
Luftfuktighet 74%
Rainfall 0.00 tum
Snow Depth Not available.
UV 0 out of 12
Pollen Not available.
Air Quality Not available.
Flu Activity Not available.
METAR VTBS 301400Z 21003KT 9999 FEW020 BKN120 BKN300 28/23 Q1009 NOSIG

More Conditions Fewer Conditions

Lufttryck 29.80 tum
Sikt 6.2 miles
Molnigt Few 2000 ft
Mestadels molnigt 12000 ft
Mestadels molnigt 30000 ft
Värmeindex 88 °F
Daggpunkt 73 °F
Luftfuktighet 74%
Rainfall 0.00 tum
Snow Depth Not available.
UV 0 out of 12
Pollen Not available.
Air Quality Not available.
Flu Activity Not available.
METAR VTBS 301400Z 21003KT 9999 FEW020 BKN120 BKN300 28/23 Q1009 NOSIG

More Conditions Fewer Conditions

10-Day Weather Forecast

Almanac

Astronomi

Aug. 30, 2014 Rise Set
Actual Time 6:04 AM ICT 6:28 PM ICT
Civil Twilight 5:43 AM ICT 6:50 PM ICT
Nautical Twilight 5:17 AM ICT 7:15 PM ICT
Astronomical Twilight 4:52 AM ICT 7:40 PM ICT
Månen 9:33 AM ICT 9:34 PM ICT
Length Of Visible Light 13h 07m
Dagens längd
12h 24m
Tomorrow will be 0m 42s shorter.
Första kvarteret, 22% of the Moon is Illuminated
Idag
Första kvarteret
Sep 2
Första kvarteret
Sep 8
Fullmåne
Sep 15
Sista kvarteret
Sep 24
New

Yesterday's Extremes

Country Highs Country Lows

Community

WunderPhotos

Upload Photos

1,748,516 photos uploaded!

WunderBlogs® & News

By Dr. Jeff Masters
Director of Meteorology, Weather Underground
By Kari Strenfel
Meteorologist, Weather Underground
By Christopher C. Burt
Weather Historian, Weather Underground
August 30, 2014
August 30, 2014
August 30, 2014

Nearby

Snödjup

Not available.

Earthquake Activity

Stad Distance Mag. Time & Date
No recent earthquake activity has been reported nearby.
Minimum magnitude displayed is 2.5.

Coastal Water Temperatures

Plats Temperatur
No Stations Reporting

Nearby Weather Stations